createdAt,value
2023-11-21T00:00:13.001Z,82.78
2023-11-21T00:02:42.152Z,82.96
2023-11-21T00:05:15.329Z,83.06
2023-11-21T00:07:43.286Z,83.34
2023-11-21T00:10:12.178Z,83.33
2023-11-21T00:12:39.162Z,83.45
2023-11-21T00:15:12.220Z,83.62
2023-11-21T00:17:39.794Z,84.08
2023-11-21T00:20:08.029Z,83.83
2023-11-21T00:22:37.850Z,84.40
2023-11-21T00:25:05.262Z,84.09
2023-11-21T00:27:32.127Z,84.23
2023-11-21T00:29:59.090Z,84.02
2023-11-21T00:32:25.838Z,84.17
2023-11-21T00:34:52.547Z,84.30
2023-11-21T00:37:19.297Z,84.05
2023-11-21T00:39:46.441Z,84.01
2023-11-21T00:42:13.132Z,83.97
2023-11-21T00:44:40.628Z,84.18
2023-11-21T00:47:07.517Z,84.29
2023-11-21T00:49:41.576Z,84.23
2023-11-21T00:52:09.686Z,84.33
2023-11-21T00:54:37.059Z,84.43
2023-11-21T00:57:05.349Z,84.22
2023-11-21T00:59:32.425Z,84.17
2023-11-21T01:02:01.651Z,84.32
2023-11-21T01:04:28.601Z,84.21
2023-11-21T01:06:55.262Z,84.00
2023-11-21T01:09:21.973Z,84.22
2023-11-21T01:11:48.755Z,84.59
2023-11-21T01:14:15.664Z,84.59
2023-11-21T01:16:42.531Z,84.15
2023-11-21T01:19:10.618Z,84.36
2023-11-21T01:21:37.463Z,84.13
2023-11-21T01:24:06.415Z,84.69
2023-11-21T01:26:33.270Z,84.08
2023-11-21T01:29:00.345Z,84.23
2023-11-21T01:31:30.721Z,83.97
2023-11-21T01:33:57.709Z,83.96
2023-11-21T01:36:24.445Z,84.23
2023-11-21T01:38:51.134Z,84.14
2023-11-21T01:41:18.500Z,84.28
2023-11-21T01:43:45.328Z,84.90
2023-11-21T01:46:12.109Z,84.15
2023-11-21T01:48:39.708Z,84.28
2023-11-21T01:51:07.038Z,84.25
2023-11-21T01:53:34.147Z,84.21
2023-11-21T01:56:00.986Z,84.52
2023-11-21T01:58:27.874Z,84.35
2023-11-21T02:00:56.234Z,84.41
2023-11-21T02:03:23.186Z,84.36
2023-11-21T02:05:49.929Z,84.40
2023-11-21T02:08:16.829Z,84.20
2023-11-21T02:10:44.486Z,84.59
2023-11-21T02:13:12.147Z,83.90
2023-11-21T02:15:39.680Z,84.06
2023-11-21T02:18:07.414Z,84.03
2023-11-21T02:20:36.205Z,83.81
2023-11-21T02:23:04.357Z,84.12
2023-11-21T02:25:33.470Z,84.19
2023-11-21T02:28:02.143Z,83.86
2023-11-21T02:30:29.681Z,84.07
2023-11-21T02:32:59.953Z,83.71
2023-11-21T02:35:27.215Z,84.01
2023-11-21T02:37:54.988Z,83.45
2023-11-21T02:40:22.436Z,83.20
2023-11-21T02:42:52.174Z,83.13
2023-11-21T02:45:25.468Z,83.58
2023-11-21T02:47:54.448Z,83.50
2023-11-21T02:50:21.633Z,83.37
2023-11-21T02:52:48.567Z,83.69
2023-11-21T02:55:15.630Z,83.57
2023-11-21T02:57:42.840Z,83.71
2023-11-21T03:00:15.984Z,83.94
2023-11-21T03:02:43.523Z,84.71
2023-11-21T03:05:11.076Z,84.79
2023-11-21T03:07:39.539Z,84.89
2023-11-21T03:10:10.409Z,85.83
2023-11-21T03:12:41.228Z,85.64
2023-11-21T03:15:08.894Z,85.44
2023-11-21T03:17:35.996Z,85.18
2023-11-21T03:20:06.002Z,84.77
2023-11-21T03:22:33.201Z,85.11
2023-11-21T03:25:00.009Z,85.18
2023-11-21T03:27:27.556Z,85.07
2023-11-21T03:29:55.587Z,85.22
2023-11-21T03:32:22.465Z,85.28
2023-11-21T03:35:00.046Z,85.26
2023-11-21T03:37:29.131Z,84.59
2023-11-21T03:39:58.889Z,85.25
2023-11-21T03:42:28.557Z,86.11
2023-11-21T03:44:55.547Z,85.86
2023-11-21T03:47:22.648Z,85.35
2023-11-21T03:49:49.411Z,86.36
2023-11-21T03:52:17.042Z,85.96
2023-11-21T03:54:44.483Z,86.42
2023-11-21T03:57:11.539Z,86.64
2023-11-21T03:59:41.262Z,86.50
2023-11-21T04:02:08.816Z,86.26
2023-11-21T04:04:36.744Z,86.28
2023-11-21T04:07:04.065Z,86.31
2023-11-21T04:09:30.818Z,86.96
2023-11-21T04:11:57.486Z,87.15
2023-11-21T04:14:25.355Z,87.42
2023-11-21T04:16:52.182Z,87.17
2023-11-21T04:19:19.220Z,87.18
2023-11-21T04:21:46.273Z,87.29
2023-11-21T04:24:13.116Z,87.22
2023-11-21T04:26:39.897Z,86.80
2023-11-21T04:29:06.776Z,87.33
2023-11-21T04:31:33.499Z,87.23
2023-11-21T04:34:00.437Z,87.27
2023-11-21T04:36:27.229Z,87.09
2023-11-21T04:38:53.945Z,87.24
2023-11-21T04:41:20.954Z,87.29
2023-11-21T04:43:47.823Z,87.53
2023-11-21T04:46:14.717Z,86.97
2023-11-21T04:48:41.623Z,86.83
2023-11-21T04:51:08.454Z,87.35
2023-11-21T04:53:36.077Z,87.39
2023-11-21T04:56:02.819Z,86.94
2023-11-21T04:58:29.551Z,87.25
2023-11-21T05:00:56.266Z,86.45
2023-11-21T05:03:25.068Z,86.90
2023-11-21T05:05:52.074Z,86.24
2023-11-21T05:08:20.067Z,86.83
2023-11-21T05:10:46.881Z,86.33
2023-11-21T05:13:13.934Z,85.92
2023-11-21T05:15:40.905Z,85.86
2023-11-21T05:18:07.994Z,85.62
2023-11-21T05:20:34.817Z,85.61
2023-11-21T05:23:01.551Z,85.55
2023-11-21T05:25:28.596Z,85.53
2023-11-21T05:28:02.289Z,85.29
2023-11-21T05:30:29.131Z,85.04
2023-11-21T05:32:55.780Z,85.45
2023-11-21T05:35:22.578Z,85.07
2023-11-21T05:37:49.408Z,85.09
2023-11-21T05:40:17.061Z,85.18
2023-11-21T05:42:46.240Z,84.74
2023-11-21T05:45:13.763Z,85.09
2023-11-21T05:47:43.682Z,85.06
2023-11-21T05:50:13.682Z,85.11
2023-11-21T05:52:43.324Z,85.19
2023-11-21T05:55:10.112Z,85.00
2023-11-21T05:57:38.219Z,85.17
2023-11-21T06:00:27.174Z,85.26
2023-11-21T06:02:58.551Z,85.44
2023-11-21T06:05:27.012Z,85.38
2023-11-21T06:07:55.680Z,85.66
2023-11-21T06:10:25.437Z,85.86
2023-11-21T06:12:53.291Z,85.94
2023-11-21T06:15:21.674Z,86.00
2023-11-21T06:17:53.062Z,86.19
2023-11-21T06:20:20.071Z,86.02
2023-11-21T06:22:48.664Z,85.75
2023-11-21T06:25:15.718Z,86.08
2023-11-21T06:27:47.173Z,86.04
2023-11-21T06:30:15.372Z,85.76
2023-11-21T06:32:43.273Z,85.32
2023-11-21T06:35:11.346Z,85.80
2023-11-21T06:37:38.931Z,84.94
2023-11-21T06:40:07.389Z,85.55
2023-11-21T06:42:39.418Z,85.69
2023-11-21T06:45:06.675Z,85.08
2023-11-21T06:47:33.666Z,85.04
2023-11-21T06:50:01.676Z,85.57
2023-11-21T06:52:28.468Z,85.56
2023-11-21T06:54:55.875Z,84.94
2023-11-21T06:57:24.684Z,85.05
2023-11-21T06:59:53.169Z,85.10
2023-11-21T07:02:22.230Z,85.14
2023-11-21T07:04:49.024Z,85.24
2023-11-21T07:07:15.850Z,85.58
2023-11-21T07:09:42.563Z,85.41
2023-11-21T07:12:09.423Z,85.34
2023-11-21T07:14:36.334Z,85.91
2023-11-21T07:17:03.222Z,86.03
2023-11-21T07:19:30.361Z,86.16
2023-11-21T07:21:57.488Z,86.11
2023-11-21T07:24:26.046Z,86.25
2023-11-21T07:26:58.014Z,86.01
2023-11-21T07:29:27.069Z,85.91
2023-11-21T07:31:54.687Z,85.89
2023-11-21T07:34:22.781Z,86.29
2023-11-21T07:36:49.485Z,86.17
2023-11-21T07:39:17.576Z,86.51
2023-11-21T07:41:50.328Z,86.13
2023-11-21T07:44:18.766Z,86.08
2023-11-21T07:46:45.759Z,85.97
2023-11-21T07:49:17.010Z,85.49
2023-11-21T07:51:44.932Z,85.86
2023-11-21T07:54:12.065Z,84.81
2023-11-21T07:56:38.883Z,84.82
2023-11-21T07:59:05.773Z,84.01
2023-11-21T08:01:33.068Z,84.05
2023-11-21T08:04:03.128Z,84.62
2023-11-21T08:06:31.892Z,83.95
2023-11-21T08:09:01.828Z,83.53
2023-11-21T08:11:30.919Z,83.79
2023-11-21T08:13:58.018Z,84.15
2023-11-21T08:16:25.433Z,84.34
2023-11-21T08:18:52.452Z,84.88
2023-11-21T08:21:20.228Z,85.55
2023-11-21T08:23:47.649Z,86.06
2023-11-21T08:26:17.864Z,86.61
2023-11-21T08:28:44.743Z,87.41
2023-11-21T08:31:13.305Z,87.39
2023-11-21T08:33:41.130Z,88.13
2023-11-21T08:36:14.903Z,88.46
2023-11-21T08:38:42.172Z,88.40
2023-11-21T08:41:09.235Z,88.96
2023-11-21T08:43:36.710Z,88.70
2023-11-21T08:46:04.189Z,88.78
2023-11-21T08:48:31.065Z,87.97
2023-11-21T08:50:57.821Z,87.74
2023-11-21T08:53:24.506Z,87.98
2023-11-21T08:55:51.305Z,88.08
2023-11-21T08:58:18.377Z,88.36
2023-11-21T09:00:47.427Z,88.96
2023-11-21T09:03:14.532Z,89.67
2023-11-21T09:05:41.481Z,90.39
2023-11-21T09:08:08.342Z,90.78
2023-11-21T09:10:38.511Z,90.91
2023-11-21T09:13:05.210Z,91.56
2023-11-21T09:15:31.825Z,91.77
2023-11-21T09:17:58.588Z,91.48
2023-11-21T09:20:25.249Z,91.56
2023-11-21T09:22:51.903Z,92.21
2023-11-21T09:25:19.759Z,92.27
2023-11-21T09:27:47.205Z,92.09
2023-11-21T09:30:15.423Z,92.08
2023-11-21T09:32:42.427Z,92.15
2023-11-21T09:35:09.734Z,91.79
2023-11-21T09:37:39.264Z,91.96
2023-11-21T09:40:15.434Z,91.91
2023-11-21T09:42:54.333Z,91.47
2023-11-21T09:45:30.489Z,92.00
2023-11-21T09:47:58.452Z,92.19
2023-11-21T09:50:27.228Z,91.78
2023-11-21T09:53:14.260Z,90.95
2023-11-21T09:55:45.008Z,91.10
2023-11-21T09:58:15.165Z,90.38
2023-11-21T10:00:48.916Z,90.85
2023-11-21T10:03:16.751Z,90.85
2023-11-21T10:05:45.419Z,91.15
2023-11-21T10:08:13.023Z,90.52
2023-11-21T10:10:45.906Z,90.56
2023-11-21T10:13:17.735Z,91.46
2023-11-21T10:15:49.960Z,91.49
2023-11-21T10:18:17.568Z,91.07
2023-11-21T10:20:47.511Z,91.24
2023-11-21T10:23:15.812Z,91.83
2023-11-21T10:25:42.761Z,92.00
2023-11-21T10:28:11.567Z,91.55
2023-11-21T10:30:41.209Z,91.50
2023-11-21T10:33:12.313Z,91.88
2023-11-21T10:35:54.685Z,91.61
2023-11-21T10:38:25.429Z,91.30
2023-11-21T10:40:53.015Z,90.89
2023-11-21T10:43:20.032Z,90.51
2023-11-21T10:45:46.988Z,89.86
2023-11-21T10:48:18.774Z,91.25
2023-11-21T10:50:47.820Z,91.39
2023-11-21T10:53:14.938Z,91.62
2023-11-21T10:55:42.301Z,91.46
2023-11-21T10:58:12.076Z,91.05
2023-11-21T11:00:41.183Z,90.60
2023-11-21T11:03:14.709Z,90.93
2023-11-21T11:05:41.964Z,90.60
2023-11-21T11:08:14.222Z,89.74
2023-11-21T11:10:40.928Z,88.68
2023-11-21T11:13:08.161Z,88.21
2023-11-21T11:15:34.931Z,86.36
2023-11-21T11:18:02.388Z,86.71
2023-11-21T11:20:35.518Z,85.97
2023-11-21T11:23:13.891Z,86.50
2023-11-21T11:26:08.443Z,86.05
2023-11-21T11:29:08.131Z,85.71
2023-11-21T11:31:44.145Z,85.08
2023-11-21T11:34:13.509Z,86.23
2023-11-21T11:37:03.823Z,85.49
2023-11-21T11:39:38.497Z,85.00
2023-11-21T11:42:08.427Z,86.38
2023-11-21T11:44:47.871Z,84.95
2023-11-21T11:47:21.368Z,85.20
2023-11-21T11:50:17.904Z,85.08
2023-11-21T11:52:45.677Z,84.91
2023-11-21T11:55:21.631Z,85.21
2023-11-21T12:00:27.847Z,84.56
2023-11-21T12:03:05.368Z,85.58
2023-11-21T12:05:36.513Z,84.84
2023-11-21T12:08:08.466Z,84.72
2023-11-21T12:10:40.972Z,84.93
2023-11-21T12:13:09.786Z,84.84
2023-11-21T12:15:38.139Z,84.55
2023-11-21T12:18:06.728Z,85.14
2023-11-21T12:20:39.411Z,84.53
2023-11-21T12:23:07.022Z,85.38
2023-11-21T12:25:34.278Z,84.96
2023-11-21T12:28:01.782Z,85.14
2023-11-21T12:30:32.028Z,84.33
2023-11-21T12:33:01.790Z,84.94
2023-11-21T12:35:31.245Z,84.91
2023-11-21T12:38:00.875Z,84.89
2023-11-21T12:40:33.645Z,84.59
2023-11-21T12:43:02.493Z,85.68
2023-11-21T12:45:31.950Z,85.44
2023-11-21T12:48:09.003Z,86.00
2023-11-21T12:50:37.689Z,85.54
2023-11-21T12:53:13.627Z,86.23
2023-11-21T12:55:41.357Z,86.10
2023-11-21T12:58:14.769Z,86.79
2023-11-21T13:00:45.648Z,86.84
2023-11-21T13:03:17.132Z,86.31
2023-11-21T13:05:53.116Z,87.43
2023-11-21T13:08:23.453Z,86.71
2023-11-21T13:10:58.919Z,86.71
2023-11-21T13:13:29.434Z,86.12
2023-11-21T13:16:07.208Z,87.40
2023-11-21T13:18:34.117Z,87.49
2023-11-21T13:21:11.143Z,88.38
2023-11-21T13:23:38.988Z,87.48
2023-11-21T13:26:07.598Z,87.87
2023-11-21T13:28:35.894Z,87.81
2023-11-21T13:31:11.523Z,89.36
2023-11-21T13:33:44.055Z,90.55
2023-11-21T13:36:11.914Z,91.34
2023-11-21T13:38:43.561Z,89.86
2023-11-21T13:41:11.540Z,89.11
2023-11-21T13:43:39.233Z,89.41
2023-11-21T13:46:14.673Z,89.85
2023-11-21T13:48:51.653Z,89.22
2023-11-21T13:51:18.736Z,89.88
2023-11-21T13:53:49.229Z,89.70
2023-11-21T13:56:20.800Z,89.68
2023-11-21T13:58:54.038Z,90.05
2023-11-21T14:01:31.850Z,90.01
2023-11-21T14:04:18.474Z,90.06
2023-11-21T14:06:53.053Z,88.48
2023-11-21T14:09:27.145Z,88.64
2023-11-21T14:11:57.497Z,89.11
2023-11-21T14:14:29.079Z,88.23
2023-11-21T14:16:58.395Z,88.40
2023-11-21T14:19:35.641Z,89.60
2023-11-21T14:22:02.422Z,89.41
2023-11-21T14:24:30.786Z,88.89
2023-11-21T14:26:57.569Z,88.92
2023-11-21T14:29:25.075Z,87.43
2023-11-21T14:31:54.558Z,88.26
2023-11-21T14:34:23.408Z,88.71
2023-11-21T14:36:53.350Z,88.69
2023-11-21T14:39:28.773Z,89.56
2023-11-21T14:42:00.676Z,88.81
2023-11-21T14:44:30.171Z,87.45
2023-11-21T14:46:59.046Z,88.73
2023-11-21T14:49:28.943Z,88.44
2023-11-21T14:52:19.264Z,88.97
2023-11-21T14:54:47.619Z,89.86
2023-11-21T14:57:22.522Z,88.10
2023-11-21T14:59:53.505Z,86.63
2023-11-21T15:02:45.533Z,87.04
2023-11-21T15:05:16.346Z,87.27
2023-11-21T15:07:43.124Z,88.05
2023-11-21T15:10:15.678Z,87.26
2023-11-21T15:12:44.883Z,87.44
2023-11-21T15:15:12.089Z,89.51
2023-11-21T15:17:41.041Z,88.51
2023-11-21T15:20:09.835Z,88.44
2023-11-21T15:22:36.962Z,88.06
2023-11-21T15:25:10.660Z,87.81
2023-11-21T15:27:42.677Z,87.90
2023-11-21T15:30:09.871Z,88.88
2023-11-21T15:32:36.818Z,87.84
2023-11-21T15:35:04.066Z,87.01
2023-11-21T15:37:30.765Z,88.39
2023-11-21T15:39:57.590Z,88.05
2023-11-21T15:42:24.767Z,87.21
2023-11-21T15:44:52.434Z,87.20
2023-11-21T15:47:20.059Z,88.12
2023-11-21T15:49:49.335Z,88.43
2023-11-21T15:52:18.295Z,88.55
2023-11-21T15:54:47.201Z,88.84
2023-11-21T15:57:18.316Z,88.51
2023-11-21T15:59:46.380Z,89.22
2023-11-21T16:02:13.659Z,89.54
2023-11-21T16:04:41.737Z,89.76
2023-11-21T16:07:08.827Z,89.43
2023-11-21T16:09:35.888Z,89.30
2023-11-21T16:12:04.846Z,89.11
2023-11-21T16:14:37.925Z,89.84
2023-11-21T16:17:05.204Z,89.54
2023-11-21T16:19:32.190Z,89.80
2023-11-21T16:21:59.120Z,89.31
2023-11-21T16:24:28.780Z,90.58
2023-11-21T16:26:56.974Z,89.78
2023-11-21T16:29:24.225Z,90.18
2023-11-21T16:31:53.466Z,90.36
2023-11-21T16:34:23.797Z,90.34
2023-11-21T16:36:54.162Z,90.78
2023-11-21T16:39:23.204Z,89.31
2023-11-21T16:41:50.359Z,89.65
2023-11-21T16:44:19.135Z,89.22
2023-11-21T16:46:48.401Z,88.97
2023-11-21T16:49:15.377Z,89.46
2023-11-21T16:51:42.170Z,89.29
2023-11-21T16:54:09.776Z,89.13
2023-11-21T16:56:39.033Z,88.84
2023-11-21T16:59:05.776Z,88.46
2023-11-21T17:01:32.537Z,88.24
2023-11-21T17:04:00.130Z,88.86
2023-11-21T17:06:28.166Z,88.25
2023-11-21T17:08:56.516Z,88.60
2023-11-21T17:11:23.298Z,88.97
2023-11-21T17:13:50.219Z,87.91
2023-11-21T17:16:17.877Z,88.27
2023-11-21T17:18:44.585Z,87.11
2023-11-21T17:21:19.447Z,88.71
2023-11-21T17:23:49.436Z,87.87
2023-11-21T17:26:17.172Z,87.59
2023-11-21T17:28:44.478Z,88.61
2023-11-21T17:31:11.457Z,90.82
2023-11-21T17:33:39.682Z,89.01
2023-11-21T17:36:09.289Z,89.46
2023-11-21T17:38:38.115Z,89.57
2023-11-21T17:41:05.761Z,89.62
2023-11-21T17:43:40.608Z,89.12
2023-11-21T17:46:09.316Z,90.28
2023-11-21T17:48:39.232Z,89.53
2023-11-21T17:51:10.148Z,90.44
2023-11-21T17:53:36.852Z,90.45
2023-11-21T17:56:03.685Z,90.28
2023-11-21T17:58:30.491Z,89.60
2023-11-21T18:00:57.261Z,90.13
2023-11-21T18:03:26.339Z,89.76
2023-11-21T18:05:55.847Z,89.39
2023-11-21T18:08:22.674Z,89.32
2023-11-21T18:10:49.539Z,88.06
2023-11-21T18:13:16.510Z,88.86
2023-11-21T18:15:43.891Z,88.49
2023-11-21T18:18:10.636Z,89.20
2023-11-21T18:20:37.339Z,88.07
2023-11-21T18:23:10.428Z,87.78
2023-11-21T18:25:39.739Z,87.92
2023-11-21T18:28:06.373Z,87.01
2023-11-21T18:30:33.098Z,87.97
2023-11-21T18:33:00.387Z,87.65
2023-11-21T18:35:27.338Z,87.93
2023-11-21T18:37:54.038Z,87.57
2023-11-21T18:40:20.909Z,88.31
2023-11-21T18:42:47.865Z,86.83
2023-11-21T18:45:17.365Z,87.29
2023-11-21T18:47:44.165Z,87.01
2023-11-21T18:50:18.499Z,86.93
2023-11-21T18:52:46.302Z,86.89
2023-11-21T18:55:13.141Z,87.14
2023-11-21T18:57:41.180Z,86.72
2023-11-21T19:00:13.406Z,86.63
2023-11-21T19:02:41.549Z,86.02
2023-11-21T19:05:09.336Z,85.91
2023-11-21T19:07:37.603Z,86.38
2023-11-21T19:10:06.256Z,86.14
2023-11-21T19:12:37.191Z,85.46
2023-11-21T19:15:05.280Z,85.49
2023-11-21T19:17:33.782Z,86.08
2023-11-21T19:20:00.775Z,84.23
2023-11-21T19:22:28.460Z,84.21
2023-11-21T19:24:55.643Z,84.42
2023-11-21T19:27:22.307Z,83.75
2023-11-21T19:29:49.235Z,82.54
2023-11-21T19:32:16.263Z,84.67
2023-11-21T19:34:43.165Z,83.27
2023-11-21T19:37:10.114Z,83.75
2023-11-21T19:39:38.353Z,83.07
2023-11-21T19:42:05.604Z,83.05
2023-11-21T19:44:33.462Z,82.92
2023-11-21T19:47:00.423Z,82.63
2023-11-21T19:49:27.143Z,82.70
2023-11-21T19:51:53.774Z,83.02
2023-11-21T19:54:20.627Z,82.49
2023-11-21T19:56:47.623Z,82.70
2023-11-21T19:59:15.985Z,82.16
2023-11-21T20:01:44.078Z,82.72
2023-11-21T20:04:11.372Z,83.09
2023-11-21T20:06:48.512Z,83.69
2023-11-21T20:09:18.278Z,84.51
2023-11-21T20:11:47.884Z,84.46
2023-11-21T20:14:15.003Z,85.18
2023-11-21T20:16:42.270Z,85.33
2023-11-21T20:19:12.142Z,84.91
2023-11-21T20:21:40.280Z,84.38
2023-11-21T20:24:07.709Z,84.95
2023-11-21T20:26:34.989Z,85.00
2023-11-21T20:29:01.753Z,83.97
2023-11-21T20:31:28.366Z,84.04
2023-11-21T20:33:55.085Z,84.03
2023-11-21T20:36:21.727Z,85.21
2023-11-21T20:38:51.422Z,84.74
2023-11-21T20:41:18.981Z,85.13
2023-11-21T20:43:45.762Z,85.39
2023-11-21T20:46:12.616Z,84.87
2023-11-21T20:48:39.341Z,85.06
2023-11-21T20:51:06.096Z,85.13
2023-11-21T20:53:33.310Z,85.46
2023-11-21T20:56:02.558Z,86.65
2023-11-21T20:58:29.614Z,85.59
2023-11-21T21:00:56.330Z,86.44
2023-11-21T21:03:23.549Z,86.98
2023-11-21T21:05:50.467Z,86.27
2023-11-21T21:08:17.229Z,86.30
2023-11-21T21:10:44.079Z,85.95
2023-11-21T21:13:12.982Z,85.69
2023-11-21T21:15:40.502Z,86.32
2023-11-21T21:18:08.595Z,85.94
2023-11-21T21:20:37.075Z,86.29
2023-11-21T21:23:03.844Z,86.38
2023-11-21T21:25:31.349Z,86.35
2023-11-21T21:27:57.973Z,87.11
2023-11-21T21:30:28.650Z,86.51
2023-11-21T21:32:58.365Z,86.30
2023-11-21T21:35:29.392Z,85.30
2023-11-21T21:37:59.395Z,85.94
2023-11-21T21:40:30.579Z,86.10
2023-11-21T21:43:00.972Z,85.68
2023-11-21T21:45:28.732Z,86.39
2023-11-21T21:47:55.886Z,86.76
2023-11-21T21:50:25.752Z,86.60
2023-11-21T21:52:52.587Z,87.61
2023-11-21T21:55:19.388Z,85.95
2023-11-21T21:57:46.677Z,86.31
2023-11-21T22:00:16.796Z,86.35
2023-11-21T22:02:43.995Z,87.21
2023-11-21T22:05:12.943Z,86.46
2023-11-21T22:07:41.247Z,86.51
2023-11-21T22:10:09.447Z,86.27
2023-11-21T22:12:36.734Z,86.81
2023-11-21T22:15:05.714Z,87.01
2023-11-21T22:17:32.601Z,87.38
2023-11-21T22:19:59.391Z,86.99
2023-11-21T22:22:27.887Z,87.03
2023-11-21T22:24:54.924Z,87.34
2023-11-21T22:27:21.712Z,87.53
2023-11-21T22:29:48.348Z,87.54
2023-11-21T22:32:15.257Z,87.50
2023-11-21T22:34:42.165Z,87.91
2023-11-21T22:37:10.581Z,88.55
2023-11-21T22:39:37.199Z,89.70
2023-11-21T22:42:04.828Z,89.95
2023-11-21T22:44:31.634Z,89.54
2023-11-21T22:47:01.475Z,89.62
2023-11-21T22:49:31.495Z,89.72
2023-11-21T22:51:59.003Z,89.23
2023-11-21T22:54:26.158Z,89.31
2023-11-21T22:56:52.782Z,89.61
2023-11-21T22:59:22.457Z,89.85
2023-11-21T23:01:51.427Z,89.61
2023-11-21T23:04:21.909Z,89.15
2023-11-21T23:06:49.522Z,90.41
2023-11-21T23:09:17.540Z,90.54
2023-11-21T23:11:45.148Z,89.99
2023-11-21T23:14:12.316Z,90.39
2023-11-21T23:16:42.644Z,90.53
2023-11-21T23:19:16.370Z,90.51
2023-11-21T23:21:44.102Z,90.68
2023-11-21T23:24:12.209Z,90.49
2023-11-21T23:26:40.215Z,89.53
2023-11-21T23:29:08.119Z,89.57
2023-11-21T23:31:36.168Z,89.09
2023-11-21T23:34:03.888Z,89.60
2023-11-21T23:36:31.477Z,89.73
2023-11-21T23:38:58.394Z,88.62
2023-11-21T23:41:25.153Z,89.28
2023-11-21T23:43:52.120Z,88.75
2023-11-21T23:46:19.341Z,88.88
2023-11-21T23:48:47.151Z,88.18
2023-11-21T23:51:14.452Z,89.23
2023-11-21T23:53:41.305Z,89.21
2023-11-21T23:56:08.381Z,88.94
2023-11-21T23:58:39.281Z,89.55
